sensor_id;sensor_type;location;lat;lon;timestamp;P1;P2;P0
68713;PMS7003;55690;51.566;19.198;2023-02-22T00:01:34;0;0;0
68713;PMS7003;55690;51.566;19.198;2023-02-22T00:05:43;2;0;0
68713;PMS7003;55690;51.566;19.198;2023-02-22T00:09:47;0;0;0
68713;PMS7003;55690;51.566;19.198;2023-02-22T00:13:52;4;0;0
68713;PMS7003;55690;51.566;19.198;2023-02-22T00:17:58;1;1;0
68713;PMS7003;55690;51.566;19.198;2023-02-22T00:22:04;3;0;0
68713;PMS7003;55690;51.566;19.198;2023-02-22T00:26:11;0;0;0
68713;PMS7003;55690;51.566;19.198;2023-02-22T00:34:27;1;0;0
68713;PMS7003;55690;51.566;19.198;2023-02-22T00:38:29;1;0;0
68713;PMS7003;55690;51.566;19.198;2023-02-22T00:42:36;0;0;0
68713;PMS7003;55690;51.566;19.198;2023-02-22T00:46:42;1;0;0
68713;PMS7003;55690;51.566;19.198;2023-02-22T00:50:48;0;0;0
68713;PMS7003;55690;51.566;19.198;2023-02-22T00:54:54;1;1;0
68713;PMS7003;55690;51.566;19.198;2023-02-22T00:59:00;1;0;0
68713;PMS7003;55690;51.566;19.198;2023-02-22T01:03:07;2;0;0
68713;PMS7003;55690;51.566;19.198;2023-02-22T01:07:13;1;1;0
68713;PMS7003;55690;51.566;19.198;2023-02-22T01:11:19;0;0;0
68713;PMS7003;55690;51.566;19.198;2023-02-22T01:15:25;2;1;1
68713;PMS7003;55690;51.566;19.198;2023-02-22T01:19:31;3;0;0
68713;PMS7003;55690;51.566;19.198;2023-02-22T01:23:37;0;0;0
68713;PMS7003;55690;51.566;19.198;2023-02-22T01:27:44;1;1;1
68713;PMS7003;55690;51.566;19.198;2023-02-22T01:31:51;1;1;1
68713;PMS7003;55690;51.566;19.198;2023-02-22T01:35:56;2;1;1
68713;PMS7003;55690;51.566;19.198;2023-02-22T01:40:03;3;0;0
68713;PMS7003;55690;51.566;19.198;2023-02-22T01:52:30;1;1;1
68713;PMS7003;55690;51.566;19.198;2023-02-22T01:56:32;1;0;0
68713;PMS7003;55690;51.566;19.198;2023-02-22T02:00:36;2;2;1
68713;PMS7003;55690;51.566;19.198;2023-02-22T02:04:39;2;2;1
68713;PMS7003;55690;51.566;19.198;2023-02-22T02:12:58;10;0;0
68713;PMS7003;55690;51.566;19.198;2023-02-22T02:17:03;0;0;0
68713;PMS7003;55690;51.566;19.198;2023-02-22T02:21:16;4;4;4
68713;PMS7003;55690;51.566;19.198;2023-02-22T02:25:31;0;0;0
68713;PMS7003;55690;51.566;19.198;2023-02-22T02:29:45;0;0;0
68713;PMS7003;55690;51.566;19.198;2023-02-22T02:33:52;4;2;2
68713;PMS7003;55690;51.566;19.198;2023-02-22T02:38:04;3;3;3
68713;PMS7003;55690;51.566;19.198;2023-02-22T02:42:13;6;6;2
68713;PMS7003;55690;51.566;19.198;2023-02-22T02:46:25;7;2;2
68713;PMS7003;55690;51.566;19.198;2023-02-22T02:50:38;3;2;2
68713;PMS7003;55690;51.566;19.198;2023-02-22T02:54:44;0;0;0
68713;PMS7003;55690;51.566;19.198;2023-02-22T02:58:48;2;2;0
68713;PMS7003;55690;51.566;19.198;2023-02-22T03:07:14;7;1;1
68713;PMS7003;55690;51.566;19.198;2023-02-22T03:11:23;5;2;2
68713;PMS7003;55690;51.566;19.198;2023-02-22T03:15:36;6;5;4
68713;PMS7003;55690;51.566;19.198;2023-02-22T03:19:50;8;3;3
68713;PMS7003;55690;51.566;19.198;2023-02-22T03:23:58;8;3;2
68713;PMS7003;55690;51.566;19.198;2023-02-22T03:28:08;5;2;1
68713;PMS7003;55690;51.566;19.198;2023-02-22T03:32:14;3;3;3
68713;PMS7003;55690;51.566;19.198;2023-02-22T03:36:29;6;2;2
68713;PMS7003;55690;51.566;19.198;2023-02-22T03:40:32;9;5;4
68713;PMS7003;55690;51.566;19.198;2023-02-22T03:44:39;6;6;4
68713;PMS7003;55690;51.566;19.198;2023-02-22T03:49:02;6;3;3
68713;PMS7003;55690;51.566;19.198;2023-02-22T03:52:59;10;5;4
68713;PMS7003;55690;51.566;19.198;2023-02-22T04:01:15;6;4;2
68713;PMS7003;55690;51.566;19.198;2023-02-22T04:09:50;10;3;2
68713;PMS7003;55690;51.566;19.198;2023-02-22T04:13:52;4;3;2
68713;PMS7003;55690;51.566;19.198;2023-02-22T04:17:54;3;3;2
68713;PMS7003;55690;51.566;19.198;2023-02-22T04:21:56;2;2;1
68713;PMS7003;55690;51.566;19.198;2023-02-22T04:25:57;1;1;1
68713;PMS7003;55690;51.566;19.198;2023-02-22T04:29:58;7;3;2
68713;PMS7003;55690;51.566;19.198;2023-02-22T04:34:00;6;3;2
68713;PMS7003;55690;51.566;19.198;2023-02-22T04:38:03;7;3;2
68713;PMS7003;55690;51.566;19.198;2023-02-22T04:42:05;1;1;1
68713;PMS7003;55690;51.566;19.198;2023-02-22T04:46:06;2;1;1
68713;PMS7003;55690;51.566;19.198;2023-02-22T04:50:08;6;2;2
68713;PMS7003;55690;51.566;19.198;2023-02-22T04:54:12;2;2;2
68713;PMS7003;55690;51.566;19.198;2023-02-22T04:58:14;2;2;1
68713;PMS7003;55690;51.566;19.198;2023-02-22T05:02:16;3;3;2
68713;PMS7003;55690;51.566;19.198;2023-02-22T05:06:18;4;4;3
68713;PMS7003;55690;51.566;19.198;2023-02-22T05:10:20;0;0;0
68713;PMS7003;55690;51.566;19.198;2023-02-22T05:14:21;4;4;2
68713;PMS7003;55690;51.566;19.198;2023-02-22T05:18:27;6;4;3
68713;PMS7003;55690;51.566;19.198;2023-02-22T05:22:29;6;4;3
68713;PMS7003;55690;51.566;19.198;2023-02-22T05:26:30;2;2;2
68713;PMS7003;55690;51.566;19.198;2023-02-22T05:30:33;6;4;3
68713;PMS7003;55690;51.566;19.198;2023-02-22T05:34:35;8;3;3
68713;PMS7003;55690;51.566;19.198;2023-02-22T05:38:37;7;4;3
68713;PMS7003;55690;51.566;19.198;2023-02-22T05:42:44;7;4;3
68713;PMS7003;55690;51.566;19.198;2023-02-22T05:46:46;8;6;5
68713;PMS7003;55690;51.566;19.198;2023-02-22T05:50:47;7;4;4
68713;PMS7003;55690;51.566;19.198;2023-02-22T05:54:49;15;8;5
68713;PMS7003;55690;51.566;19.198;2023-02-22T05:58:51;7;6;4
68713;PMS7003;55690;51.566;19.198;2023-02-22T06:02:56;13;10;8
68713;PMS7003;55690;51.566;19.198;2023-02-22T06:07:01;14;13;10
68713;PMS7003;55690;51.566;19.198;2023-02-22T06:11:02;8;8;4
68713;PMS7003;55690;51.566;19.198;2023-02-22T06:15:04;18;10;8
68713;PMS7003;55690;51.566;19.198;2023-02-22T06:19:05;11;11;8
68713;PMS7003;55690;51.566;19.198;2023-02-22T06:23:08;11;7;7
68713;PMS7003;55690;51.566;19.198;2023-02-22T06:27:14;17;9;6
68713;PMS7003;55690;51.566;19.198;2023-02-22T06:31:21;15;8;7
68713;PMS7003;55690;51.566;19.198;2023-02-22T06:35:27;29;17;9
68713;PMS7003;55690;51.566;19.198;2023-02-22T06:39:33;20;13;11
68713;PMS7003;55690;51.566;19.198;2023-02-22T06:43:39;19;10;7
68713;PMS7003;55690;51.566;19.198;2023-02-22T06:49:18;20;12;6
68713;PMS7003;55690;51.566;19.198;2023-02-22T06:53:24;17;7;6
68713;PMS7003;55690;51.566;19.198;2023-02-22T06:57:30;18;9;6
68713;PMS7003;55690;51.566;19.198;2023-02-22T07:01:39;17;10;8
68713;PMS7003;55690;51.566;19.198;2023-02-22T07:05:43;7;4;3
68713;PMS7003;55690;51.566;19.198;2023-02-22T07:09:49;17;8;6
68713;PMS7003;55690;51.566;19.198;2023-02-22T07:13:55;12;8;5
68713;PMS7003;55690;51.566;19.198;2023-02-22T07:18:02;14;8;7
68713;PMS7003;55690;51.566;19.198;2023-02-22T07:22:08;9;4;3
68713;PMS7003;55690;51.566;19.198;2023-02-22T07:26:14;9;8;6
68713;PMS7003;55690;51.566;19.198;2023-02-22T07:30:21;10;6;5
68713;PMS7003;55690;51.566;19.198;2023-02-22T07:34:26;6;4;3
68713;PMS7003;55690;51.566;19.198;2023-02-22T07:38:32;11;4;3
68713;PMS7003;55690;51.566;19.198;2023-02-22T07:46:52;2;1;1
68713;PMS7003;55690;51.566;19.198;2023-02-22T07:50:53;5;5;5
68713;PMS7003;55690;51.566;19.198;2023-02-22T07:54:57;20;5;3
68713;PMS7003;55690;51.566;19.198;2023-02-22T07:59:03;5;3;3
68713;PMS7003;55690;51.566;19.198;2023-02-22T08:03:11;6;2;1
68713;PMS7003;55690;51.566;19.198;2023-02-22T08:07:16;3;2;2
68713;PMS7003;55690;51.566;19.198;2023-02-22T08:11:22;2;2;1
68713;PMS7003;55690;51.566;19.198;2023-02-22T08:15:35;1;1;1
68713;PMS7003;55690;51.566;19.198;2023-02-22T08:19:38;8;1;1
68713;PMS7003;55690;51.566;19.198;2023-02-22T08:23:40;3;3;1
68713;PMS7003;55690;51.566;19.198;2023-02-22T08:27:46;5;1;1
68713;PMS7003;55690;51.566;19.198;2023-02-22T08:31:53;1;1;1
68713;PMS7003;55690;51.566;19.198;2023-02-22T08:35:59;3;3;2
68713;PMS7003;55690;51.566;19.198;2023-02-22T08:40:05;2;2;1
68713;PMS7003;55690;51.566;19.198;2023-02-22T08:44:11;2;1;1
68713;PMS7003;55690;51.566;19.198;2023-02-22T08:48:18;6;3;2
68713;PMS7003;55690;51.566;19.198;2023-02-22T08:52:23;6;6;4
68713;PMS7003;55690;51.566;19.198;2023-02-22T08:56:30;5;4;2
68713;PMS7003;55690;51.566;19.198;2023-02-22T09:00:37;2;1;1
68713;PMS7003;55690;51.566;19.198;2023-02-22T09:04:43;1;1;1
68713;PMS7003;55690;51.566;19.198;2023-02-22T09:08:48;0;0;0
68713;PMS7003;55690;51.566;19.198;2023-02-22T09:12:54;1;1;0
68713;PMS7003;55690;51.566;19.198;2023-02-22T09:17:01;3;2;1
68713;PMS7003;55690;51.566;19.198;2023-02-22T09:21:07;7;3;3
68713;PMS7003;55690;51.566;19.198;2023-02-22T09:25:13;6;0;0
68713;PMS7003;55690;51.566;19.198;2023-02-22T09:29:20;0;0;0
68713;PMS7003;55690;51.566;19.198;2023-02-22T09:33:25;2;2;1
68713;PMS7003;55690;51.566;19.198;2023-02-22T09:37:31;5;5;4
68713;PMS7003;55690;51.566;19.198;2023-02-22T09:41:39;2;1;1
68713;PMS7003;55690;51.566;19.198;2023-02-22T09:45:53;4;0;0
68713;PMS7003;55690;51.566;19.198;2023-02-22T09:50:04;0;0;0
68713;PMS7003;55690;51.566;19.198;2023-02-22T09:54:20;3;1;1
68713;PMS7003;55690;51.566;19.198;2023-02-22T09:58:30;3;2;1
68713;PMS7003;55690;51.566;19.198;2023-02-22T10:02:35;2;2;2
68713;PMS7003;55690;51.566;19.198;2023-02-22T10:19:37;5;2;2
68713;PMS7003;55690;51.566;19.198;2023-02-22T10:32:23;3;2;2
68713;PMS7003;55690;51.566;19.198;2023-02-22T10:36:31;6;3;2
68713;PMS7003;55690;51.566;19.198;2023-02-22T10:40:38;3;3;3
68713;PMS7003;55690;51.566;19.198;2023-02-22T10:44:40;3;3;1
68713;PMS7003;55690;51.566;19.198;2023-02-22T10:48:43;3;2;1
68713;PMS7003;55690;51.566;19.198;2023-02-22T10:52:48;2;2;2
68713;PMS7003;55690;51.566;19.198;2023-02-22T10:56:51;3;2;2
68713;PMS7003;55690;51.566;19.198;2023-02-22T11:00:55;2;2;2
68713;PMS7003;55690;51.566;19.198;2023-02-22T11:04:58;7;5;4
68713;PMS7003;55690;51.566;19.198;2023-02-22T11:09:08;5;2;1
68713;PMS7003;55690;51.566;19.198;2023-02-22T11:13:22;5;2;1
68713;PMS7003;55690;51.566;19.198;2023-02-22T11:17:30;3;3;3
68713;PMS7003;55690;51.566;19.198;2023-02-22T11:21:34;8;5;3
68713;PMS7003;55690;51.566;19.198;2023-02-22T11:25:36;9;4;3
68713;PMS7003;55690;51.566;19.198;2023-02-22T11:29:42;3;1;1
68713;PMS7003;55690;51.566;19.198;2023-02-22T11:33:54;4;4;3
68713;PMS7003;55690;51.566;19.198;2023-02-22T11:46:27;2;2;1
68713;PMS7003;55690;51.566;19.198;2023-02-22T11:54:52;2;2;2
68713;PMS7003;55690;51.566;19.198;2023-02-22T12:24:26;4;4;3
68713;PMS7003;55690;51.566;19.198;2023-02-22T12:32:51;2;0;0
68713;PMS7003;55690;51.566;19.198;2023-02-22T12:37:08;8;1;1
68713;PMS7003;55690;51.566;19.198;2023-02-22T12:41:13;2;1;1
68713;PMS7003;55690;51.566;19.198;2023-02-22T12:49:38;5;3;2
68713;PMS7003;55690;51.566;19.198;2023-02-22T12:53:45;0;0;0
68713;PMS7003;55690;51.566;19.198;2023-02-22T13:19:05;6;4;3
68713;PMS7003;55690;51.566;19.198;2023-02-22T13:23:15;2;0;0
68713;PMS7003;55690;51.566;19.198;2023-02-22T13:27:34;4;1;1
68713;PMS7003;55690;51.566;19.198;2023-02-22T13:52:53;8;4;2
68713;PMS7003;55690;51.566;19.198;2023-02-22T13:56:58;2;2;1
68713;PMS7003;55690;51.566;19.198;2023-02-22T14:01:02;4;1;0
68713;PMS7003;55690;51.566;19.198;2023-02-22T14:13:31;10;3;2
68713;PMS7003;55690;51.566;19.198;2023-02-22T14:17:47;1;1;1
68713;PMS7003;55690;51.566;19.198;2023-02-22T14:26:08;2;2;1
68713;PMS7003;55690;51.566;19.198;2023-02-22T14:30:20;1;1;1
68713;PMS7003;55690;51.566;19.198;2023-02-22T14:38:39;2;2;2
68713;PMS7003;55690;51.566;19.198;2023-02-22T14:42:47;3;3;3
68713;PMS7003;55690;51.566;19.198;2023-02-22T14:46:51;1;1;0
68713;PMS7003;55690;51.566;19.198;2023-02-22T14:50:57;1;1;1
68713;PMS7003;55690;51.566;19.198;2023-02-22T14:55:21;6;2;2
68713;PMS7003;55690;51.566;19.198;2023-02-22T14:59:21;6;0;0
68713;PMS7003;55690;51.566;19.198;2023-02-22T15:03:29;5;5;3
68713;PMS7003;55690;51.566;19.198;2023-02-22T15:07:36;3;2;1
68713;PMS7003;55690;51.566;19.198;2023-02-22T15:11:38;6;3;2
68713;PMS7003;55690;51.566;19.198;2023-02-22T15:15:41;18;4;4
68713;PMS7003;55690;51.566;19.198;2023-02-22T15:19:45;7;4;2
68713;PMS7003;55690;51.566;19.198;2023-02-22T15:23:49;9;3;3
68713;PMS7003;55690;51.566;19.198;2023-02-22T15:27:53;2;2;2
68713;PMS7003;55690;51.566;19.198;2023-02-22T15:36:17;6;1;1
68713;PMS7003;55690;51.566;19.198;2023-02-22T15:40:20;2;2;2
68713;PMS7003;55690;51.566;19.198;2023-02-22T15:44:22;4;2;2
68713;PMS7003;55690;51.566;19.198;2023-02-22T15:48:24;1;1;1
68713;PMS7003;55690;51.566;19.198;2023-02-22T15:52:32;4;2;2
68713;PMS7003;55690;51.566;19.198;2023-02-22T15:56:34;8;6;4
68713;PMS7003;55690;51.566;19.198;2023-02-22T16:00:38;4;2;2
68713;PMS7003;55690;51.566;19.198;2023-02-22T16:04:42;2;2;1
68713;PMS7003;55690;51.566;19.198;2023-02-22T16:08:47;4;1;1
68713;PMS7003;55690;51.566;19.198;2023-02-22T16:21:24;6;5;3
68713;PMS7003;55690;51.566;19.198;2023-02-22T16:25:30;7;4;2
68713;PMS7003;55690;51.566;19.198;2023-02-22T16:29:36;2;2;1
68713;PMS7003;55690;51.566;19.198;2023-02-22T16:33:38;3;3;3
68713;PMS7003;55690;51.566;19.198;2023-02-22T16:37:39;5;3;3
68713;PMS7003;55690;51.566;19.198;2023-02-22T16:41:46;1;1;0
68713;PMS7003;55690;51.566;19.198;2023-02-22T16:45:48;5;5;5
68713;PMS7003;55690;51.566;19.198;2023-02-22T16:49:49;10;10;7
68713;PMS7003;55690;51.566;19.198;2023-02-22T16:53:56;8;6;5
68713;PMS7003;55690;51.566;19.198;2023-02-22T16:57:58;5;4;3
68713;PMS7003;55690;51.566;19.198;2023-02-22T17:02:01;7;5;5
68713;PMS7003;55690;51.566;19.198;2023-02-22T17:06:07;12;5;4
68713;PMS7003;55690;51.566;19.198;2023-02-22T17:10:15;4;3;2
68713;PMS7003;55690;51.566;19.198;2023-02-22T17:14:19;8;7;5
68713;PMS7003;55690;51.566;19.198;2023-02-22T17:18:27;12;8;7
68713;PMS7003;55690;51.566;19.198;2023-02-22T17:22:33;6;6;5
68713;PMS7003;55690;51.566;19.198;2023-02-22T17:26:35;4;4;3
68713;PMS7003;55690;51.566;19.198;2023-02-22T17:30:37;15;4;4
68713;PMS7003;55690;51.566;19.198;2023-02-22T17:34:39;7;5;3
68713;PMS7003;55690;51.566;19.198;2023-02-22T17:38:40;7;7;4
68713;PMS7003;55690;51.566;19.198;2023-02-22T17:42:43;5;5;4
68713;PMS7003;55690;51.566;19.198;2023-02-22T17:46:45;6;6;3
68713;PMS7003;55690;51.566;19.198;2023-02-22T17:50:47;9;5;4
68713;PMS7003;55690;51.566;19.198;2023-02-22T17:54:51;18;6;4
68713;PMS7003;55690;51.566;19.198;2023-02-22T17:58:53;7;7;6
68713;PMS7003;55690;51.566;19.198;2023-02-22T18:02:55;9;5;5
68713;PMS7003;55690;51.566;19.198;2023-02-22T18:06:57;13;5;5
68713;PMS7003;55690;51.566;19.198;2023-02-22T18:11:01;5;2;2
68713;PMS7003;55690;51.566;19.198;2023-02-22T18:15:05;5;4;3
68713;PMS7003;55690;51.566;19.198;2023-02-22T18:19:10;8;4;3
68713;PMS7003;55690;51.566;19.198;2023-02-22T18:23:13;10;0;0
68713;PMS7003;55690;51.566;19.198;2023-02-22T18:27:16;5;4;4
68713;PMS7003;55690;51.566;19.198;2023-02-22T18:31:19;7;5;5
68713;PMS7003;55690;51.566;19.198;2023-02-22T18:35:22;5;2;2
68713;PMS7003;55690;51.566;19.198;2023-02-22T18:39:24;7;6;4
68713;PMS7003;55690;51.566;19.198;2023-02-22T18:43:25;10;6;5
68713;PMS7003;55690;51.566;19.198;2023-02-22T18:47:29;4;3;3
68713;PMS7003;55690;51.566;19.198;2023-02-22T18:51:30;13;8;7
68713;PMS7003;55690;51.566;19.198;2023-02-22T18:55:33;26;7;6
68713;PMS7003;55690;51.566;19.198;2023-02-22T18:59:42;2;2;2
68713;PMS7003;55690;51.566;19.198;2023-02-22T19:03:44;6;6;4
68713;PMS7003;55690;51.566;19.198;2023-02-22T19:07:48;5;3;2
68713;PMS7003;55690;51.566;19.198;2023-02-22T19:11:50;11;2;2
68713;PMS7003;55690;51.566;19.198;2023-02-22T19:15:54;7;3;3
68713;PMS7003;55690;51.566;19.198;2023-02-22T19:19:55;12;5;4
68713;PMS7003;55690;51.566;19.198;2023-02-22T19:23:57;14;4;4
68713;PMS7003;55690;51.566;19.198;2023-02-22T19:27:58;5;4;3
68713;PMS7003;55690;51.566;19.198;2023-02-22T19:32:00;5;5;3
68713;PMS7003;55690;51.566;19.198;2023-02-22T19:36:01;3;3;3
68713;PMS7003;55690;51.566;19.198;2023-02-22T19:40:03;6;6;4
68713;PMS7003;55690;51.566;19.198;2023-02-22T19:44:16;4;1;1
68713;PMS7003;55690;51.566;19.198;2023-02-22T19:48:17;7;6;4
68713;PMS7003;55690;51.566;19.198;2023-02-22T19:52:20;6;3;2
68713;PMS7003;55690;51.566;19.198;2023-02-22T19:56:22;16;8;3
68713;PMS7003;55690;51.566;19.198;2023-02-22T20:00:30;7;5;4
68713;PMS7003;55690;51.566;19.198;2023-02-22T20:04:35;7;3;3
68713;PMS7003;55690;51.566;19.198;2023-02-22T20:08:37;8;7;4
68713;PMS7003;55690;51.566;19.198;2023-02-22T20:12:41;7;6;4
68713;PMS7003;55690;51.566;19.198;2023-02-22T20:16:43;7;6;4
68713;PMS7003;55690;51.566;19.198;2023-02-22T20:20:44;10;7;5
68713;PMS7003;55690;51.566;19.198;2023-02-22T20:24:46;5;5;4
68713;PMS7003;55690;51.566;19.198;2023-02-22T20:28:49;5;5;3
68713;PMS7003;55690;51.566;19.198;2023-02-22T20:32:52;16;8;7
68713;PMS7003;55690;51.566;19.198;2023-02-22T20:36:54;19;4;3
68713;PMS7003;55690;51.566;19.198;2023-02-22T20:40:55;7;5;5
68713;PMS7003;55690;51.566;19.198;2023-02-22T20:44:56;5;5;2
68713;PMS7003;55690;51.566;19.198;2023-02-22T20:49:05;11;9;5
68713;PMS7003;55690;51.566;19.198;2023-02-22T20:53:07;3;3;3
68713;PMS7003;55690;51.566;19.198;2023-02-22T20:57:09;5;5;3
68713;PMS7003;55690;51.566;19.198;2023-02-22T21:01:11;5;3;3
68713;PMS7003;55690;51.566;19.198;2023-02-22T21:05:16;9;4;3
68713;PMS7003;55690;51.566;19.198;2023-02-22T21:09:18;6;1;0
68713;PMS7003;55690;51.566;19.198;2023-02-22T21:13:21;5;5;5
68713;PMS7003;55690;51.566;19.198;2023-02-22T21:17:22;14;4;3
68713;PMS7003;55690;51.566;19.198;2023-02-22T21:21:30;13;7;5
68713;PMS7003;55690;51.566;19.198;2023-02-22T21:25:32;6;6;4
68713;PMS7003;55690;51.566;19.198;2023-02-22T21:29:34;11;8;5
68713;PMS7003;55690;51.566;19.198;2023-02-22T21:33:37;3;2;2
68713;PMS7003;55690;51.566;19.198;2023-02-22T21:37:41;6;2;1
68713;PMS7003;55690;51.566;19.198;2023-02-22T21:41:46;11;5;3
68713;PMS7003;55690;51.566;19.198;2023-02-22T21:45:49;13;8;4
68713;PMS7003;55690;51.566;19.198;2023-02-22T21:49:55;9;3;2
68713;PMS7003;55690;51.566;19.198;2023-02-22T21:54:02;6;6;5
68713;PMS7003;55690;51.566;19.198;2023-02-22T21:58:07;6;5;4
68713;PMS7003;55690;51.566;19.198;2023-02-22T22:02:13;9;5;5
68713;PMS7003;55690;51.566;19.198;2023-02-22T22:06:19;5;5;4
68713;PMS7003;55690;51.566;19.198;2023-02-22T22:10:26;8;3;3
68713;PMS7003;55690;51.566;19.198;2023-02-22T22:14:33;12;2;1
68713;PMS7003;55690;51.566;19.198;2023-02-22T22:18:38;11;9;5
68713;PMS7003;55690;51.566;19.198;2023-02-22T22:22:44;7;5;4
68713;PMS7003;55690;51.566;19.198;2023-02-22T22:26:51;7;6;3
68713;PMS7003;55690;51.566;19.198;2023-02-22T22:30:56;4;4;3
68713;PMS7003;55690;51.566;19.198;2023-02-22T22:35:03;3;2;1
68713;PMS7003;55690;51.566;19.198;2023-02-22T22:39:14;5;4;3
68713;PMS7003;55690;51.566;19.198;2023-02-22T22:43:15;4;3;3
68713;PMS7003;55690;51.566;19.198;2023-02-22T22:47:21;7;7;5
68713;PMS7003;55690;51.566;19.198;2023-02-22T22:51:27;10;6;3
68713;PMS7003;55690;51.566;19.198;2023-02-22T22:55:37;5;5;2
68713;PMS7003;55690;51.566;19.198;2023-02-22T22:59:41;16;3;2
68713;PMS7003;55690;51.566;19.198;2023-02-22T23:03:46;16;5;4
68713;PMS7003;55690;51.566;19.198;2023-02-22T23:07:57;4;2;1
68713;PMS7003;55690;51.566;19.198;2023-02-22T23:12:04;3;3;2
68713;PMS7003;55690;51.566;19.198;2023-02-22T23:16:09;3;3;2
68713;PMS7003;55690;51.566;19.198;2023-02-22T23:20:14;3;3;2
68713;PMS7003;55690;51.566;19.198;2023-02-22T23:24:17;3;3;3
68713;PMS7003;55690;51.566;19.198;2023-02-22T23:28:23;12;3;3
68713;PMS7003;55690;51.566;19.198;2023-02-22T23:32:29;2;1;1
68713;PMS7003;55690;51.566;19.198;2023-02-22T23:36:36;5;3;1
68713;PMS7003;55690;51.566;19.198;2023-02-22T23:40:42;10;6;4
68713;PMS7003;55690;51.566;19.198;2023-02-22T23:44:48;2;2;2
68713;PMS7003;55690;51.566;19.198;2023-02-22T23:48:54;8;2;2
68713;PMS7003;55690;51.566;19.198;2023-02-22T23:53:04;1;1;1
68713;PMS7003;55690;51.566;19.198;2023-02-22T23:57:06;2;2;1
